Hlavní strana
METAR-TAF:

METAR-TAF

Letiště :

Logan County Airport

Lincoln, Illinois, Spojené státy americké

zeměpisná šířka: 40-09-31N, zeměpisná délka: 089-20-06W, výška: 182 m

Aktuální stav počasí

Zpráva byla vytvořena před 19 minutami, v 18:15 UTC
Východní vítr 6 kt
Teplota 1°C
Vlhkost vzduchu 86%
Tlak 1020 hPa
Viditelnost: 6.4 km
Zataženo ve výšce 2000 ft
kouřmo

METAR: KAAA 181815Z AUTO 09006KT 4SM BR OVC020 01/M01 A3012 RMK AO2 T00101010

Čas: 12:34 (18:34 UTC)


TAF: chybějící

Stav a předpovědi počasí z více než 4 000 letišť (zprávy METAR a TAF).

Červené a žluté tečky na mapě představují dostupné meteorologické stanice.

Když kurzor umístíte na tečku, zobrazí se název stanice.

Pak kliknutím zobrazíte stav a předpověď počasí.

Chcete-li změnit mapu, kliknutím na zelené tlačítko se znaménkem +mapu přiblížíte, kliknutím na zelené tlačítko se znaménkem – mapu oddálíte a kliknutím na zelené šipky přejdete na sousední mapy.


METAR-TAF: